Time;durP1;ratioP1;P1;durP2;ratioP2;P2;SDS_P1;SDS_P2;PMS_P1;PMS_P2;Temp;Humidity;BMP_temperature;BMP_pressure;BME280_temperature;BME280_humidity;BME280_pressure;Samples;Min_cycle;Max_cycle;Signal;HPM_P1;HPM_P2
2021/11/08 00:02:00;;;;;;;4.78;3.22;;;23.80;47.50;;;;;;6155554;28;80582;-66
2021/11/08 00:05:00;;;;;;;5.30;3.50;;;23.80;47.60;;;;;;6150765;28;80800;-66
2021/11/08 00:08:02;;;;;;;4.57;3.33;;;23.70;47.20;;;;;;6144516;28;80475;-66
2021/11/08 00:11:04;;;;;;;5.60;3.08;;;23.70;47.10;;;;;;6157373;28;80836;-66
2021/11/08 00:14:08;;;;;;;4.93;3.45;;;23.70;47.60;;;;;;6153964;28;80888;-66
2021/11/08 00:17:34;;;;;;;7.05;3.72;;;23.70;47.30;;;;;;6145771;28;80894;-66
2021/11/08 00:20:43;;;;;;;4.60;3.40;;;23.70;47.60;;;;;;6150136;28;84808;-66
2021/11/08 00:23:43;;;;;;;5.68;3.30;;;23.70;47.40;;;;;;6143408;28;80045;-66
2021/11/08 00:26:44;;;;;;;4.90;3.10;;;23.70;47.30;;;;;;6140097;28;80783;-66
2021/11/08 00:29:44;;;;;;;6.85;3.50;;;23.80;47.00;;;;;;6143879;28;80893;-66
2021/11/08 00:32:45;;;;;;;5.13;3.60;;;23.70;47.00;;;;;;6146150;28;80763;-66
2021/11/08 00:35:45;;;;;;;4.40;3.05;;;23.70;46.90;;;;;;6151676;28;80602;-66
2021/11/08 00:38:46;;;;;;;6.00;3.72;;;23.70;47.10;;;;;;6141520;28;80494;-66
2021/11/08 00:41:47;;;;;;;5.25;3.63;;;23.70;47.00;;;;;;6154908;28;81662;-66
2021/11/08 00:44:47;;;;;;;5.22;3.70;;;23.70;46.80;;;;;;6153281;28;80503;-66
2021/11/08 00:47:48;;;;;;;5.28;3.50;;;23.70;46.60;;;;;;6153465;28;80547;-66
2021/11/08 00:50:49;;;;;;;4.38;3.25;;;23.70;46.60;;;;;;6155846;28;80333;-66
2021/11/08 00:53:51;;;;;;;5.60;2.80;;;23.70;46.60;;;;;;6140459;28;80663;-66
2021/11/08 00:56:56;;;;;;;4.28;3.15;;;23.70;46.30;;;;;;6146993;28;84309;-66
2021/11/08 00:59:57;;;;;;;5.25;2.90;;;23.70;46.80;;;;;;6145444;28;81623;-66
2021/11/08 01:03:00;;;;;;;3.65;3.28;;;23.70;46.60;;;;;;6145617;28;80586;-66
2021/11/08 01:06:01;;;;;;;5.95;3.10;;;23.70;46.80;;;;;;6155253;28;81299;-67
2021/11/08 01:09:02;;;;;;;3.50;2.67;;;23.70;46.40;;;;;;6140627;28;80653;-66
2021/11/08 01:12:03;;;;;;;5.20;3.08;;;23.70;46.50;;;;;;6147355;28;80834;-66
2021/11/08 01:15:03;;;;;;;4.90;2.90;;;23.70;46.40;;;;;;6144886;28;80872;-66
2021/11/08 01:18:04;;;;;;;4.85;3.40;;;23.70;46.60;;;;;;6154235;28;80800;-66
2021/11/08 01:21:06;;;;;;;4.75;2.85;;;23.70;46.30;;;;;;6150027;28;80314;-65
2021/11/08 01:24:07;;;;;;;5.53;3.15;;;23.70;46.60;;;;;;6154424;28;80671;-65
2021/11/08 01:27:07;;;;;;;2.90;2.60;;;23.70;47.10;;;;;;6147255;28;80809;-66
2021/11/08 01:30:09;;;;;;;4.25;3.20;;;23.70;46.40;;;;;;6152939;28;80196;-64
2021/11/08 01:33:16;;;;;;;2.90;2.30;;;23.70;46.20;;;;;;6143670;28;80478;-64
2021/11/08 01:36:21;;;;;;;3.47;2.63;;;23.70;46.20;;;;;;6155661;28;80356;-64
2021/11/08 01:39:31;;;;;;;4.40;2.97;;;23.60;46.30;;;;;;6139660;28;80591;-64
2021/11/08 01:42:31;;;;;;;2.92;2.45;;;23.60;46.30;;;;;;6140967;28;80335;-64
2021/11/08 01:45:32;;;;;;;2.55;2.35;;;23.70;46.10;;;;;;6141383;28;81005;-64
2021/11/08 01:48:32;;;;;;;4.00;2.80;;;23.70;45.90;;;;;;6139099;28;80272;-64
2021/11/08 01:51:35;;;;;;;3.10;2.40;;;23.70;45.90;;;;;;6147203;28;80955;-64
2021/11/08 01:54:38;;;;;;;3.97;2.55;;;23.60;45.60;;;;;;6140319;28;80630;-65
2021/11/08 01:57:38;;;;;;;3.88;2.67;;;23.60;45.70;;;;;;6144752;28;80188;-65
2021/11/08 02:00:39;;;;;;;3.60;2.53;;;23.60;45.70;;;;;;6155597;28;81645;-62
2021/11/08 02:03:39;;;;;;;3.25;2.60;;;23.60;45.90;;;;;;6155511;28;80248;-62
2021/11/08 02:06:40;;;;;;;3.28;2.30;;;23.60;45.70;;;;;;6142402;28;80866;-63
2021/11/08 02:09:40;;;;;;;3.45;2.60;;;23.60;45.70;;;;;;6158931;28;80532;-63
2021/11/08 02:12:41;;;;;;;3.72;2.58;;;23.60;45.80;;;;;;6163034;28;81018;-63
2021/11/08 02:15:41;;;;;;;2.88;2.40;;;23.60;45.40;;;;;;6150518;28;81443;-63
2021/11/08 02:18:42;;;;;;;3.65;2.30;;;23.70;45.90;;;;;;6151492;28;80606;-64
2021/11/08 02:21:43;;;;;;;3.20;2.33;;;23.70;46.00;;;;;;6155376;28;80551;-63
2021/11/08 02:24:43;;;;;;;2.83;2.33;;;23.70;46.00;;;;;;6144168;28;81189;-63
2021/11/08 02:27:44;;;;;;;2.67;2.28;;;23.70;45.90;;;;;;6145999;28;80344;-63
2021/11/08 02:30:46;;;;;;;2.60;2.40;;;23.70;45.90;;;;;;6149664;28;80583;-64
2021/11/08 02:33:46;;;;;;;3.55;2.05;;;23.70;46.10;;;;;;6151209;28;80311;-63
2021/11/08 02:36:47;;;;;;;2.85;2.05;;;23.70;46.00;;;;;;6151744;28;81190;-64
2021/11/08 02:39:50;;;;;;;3.38;2.47;;;23.70;46.00;;;;;;6152486;28;80919;-63
2021/11/08 02:42:50;;;;;;;2.67;2.10;;;23.70;46.00;;;;;;6148758;28;80813;-63
2021/11/08 02:46:07;;;;;;;3.05;2.30;;;23.70;46.00;;;;;;6142308;28;81469;-64
2021/11/08 02:49:09;;;;;;;3.10;2.10;;;23.70;45.90;;;;;;6151071;28;83396;-65
2021/11/08 02:52:12;;;;;;;4.15;1.98;;;23.70;45.90;;;;;;6143533;28;81298;-65
2021/11/08 02:55:13;;;;;;;3.42;2.35;;;23.70;45.70;;;;;;6155773;28;81600;-65
2021/11/08 02:58:13;;;;;;;2.83;2.33;;;23.70;45.70;;;;;;6154046;28;80342;-66
2021/11/08 03:01:14;;;;;;;2.67;2.20;;;23.70;45.60;;;;;;6149206;28;81914;-65
2021/11/08 03:04:19;;;;;;;2.97;2.55;;;23.70;45.60;;;;;;6142806;28;80514;-66
2021/11/08 03:07:22;;;;;;;1.95;1.80;;;23.70;45.50;;;;;;6152065;28;83418;-65
2021/11/08 03:10:23;;;;;;;4.20;2.10;;;23.70;45.70;;;;;;6153857;28;80688;-65
2021/11/08 03:13:25;;;;;;;2.95;2.00;;;23.70;45.40;;;;;;6148673;28;80984;-65
2021/11/08 03:19:32;;;;;;;2.22;2.03;;;23.70;45.20;;;;;;6164510;28;80784;-65
2021/11/08 03:22:34;;;;;;;2.67;2.30;;;23.70;45.40;;;;;;6154390;28;80176;-64
2021/11/08 03:25:41;;;;;;;3.63;2.60;;;23.70;44.50;;;;;;6141361;28;80438;-64
2021/11/08 03:28:41;;;;;;;3.15;2.13;;;23.70;43.80;;;;;;6147329;28;81566;-64
2021/11/08 03:31:44;;;;;;;3.00;2.33;;;23.70;43.50;;;;;;6152856;28;82181;-64
2021/11/08 03:34:57;;;;;;;4.43;2.72;;;23.70;43.60;;;;;;6142409;28;80536;-64
2021/11/08 03:37:59;;;;;;;2.67;2.30;;;23.70;43.40;;;;;;6149440;28;80847;-65
2021/11/08 03:40:59;;;;;;;3.40;2.28;;;23.70;43.30;;;;;;6140649;28;80699;-65
2021/11/08 03:44:00;;;;;;;3.70;2.20;;;23.80;43.50;;;;;;6149733;28;80406;-65
2021/11/08 03:47:01;;;;;;;2.58;1.98;;;23.80;43.40;;;;;;6146738;28;80825;-65
2021/11/08 03:50:01;;;;;;;2.90;2.05;;;23.80;43.50;;;;;;6148797;28;80506;-65
2021/11/08 03:53:03;;;;;;;2.78;2.03;;;23.90;43.50;;;;;;6151916;28;80412;-63
2021/11/08 03:56:03;;;;;;;2.42;2.22;;;23.90;43.50;;;;;;6141642;28;80660;-64
2021/11/08 03:59:04;;;;;;;2.58;2.10;;;23.90;43.50;;;;;;6142146;28;80690;-64
2021/11/08 04:02:04;;;;;;;2.65;1.83;;;24.00;43.50;;;;;;6150992;28;80486;-65
2021/11/08 04:05:05;;;;;;;2.45;2.00;;;24.00;43.50;;;;;;6145795;28;82500;-65
2021/11/08 04:08:08;;;;;;;2.78;2.15;;;24.00;43.40;;;;;;6149192;28;80225;-65
2021/11/08 04:11:08;;;;;;;2.78;2.40;;;24.00;43.40;;;;;;6140444;28;81785;-64
2021/11/08 04:14:09;;;;;;;2.20;1.75;;;24.00;43.30;;;;;;6147924;28;80532;-65
2021/11/08 04:17:10;;;;;;;2.28;1.80;;;24.10;43.20;;;;;;6141273;28;80479;-65
2021/11/08 04:20:11;;;;;;;2.53;2.17;;;24.00;43.10;;;;;;6152061;28;80690;-65
2021/11/08 04:23:11;;;;;;;2.20;2.00;;;24.10;43.10;;;;;;6147092;28;80392;-64
2021/11/08 04:26:15;;;;;;;2.88;1.85;;;24.10;43.10;;;;;;6152134;28;80864;-62
2021/11/08 04:29:15;;;;;;;2.15;1.92;;;24.10;43.00;;;;;;6140718;28;80534;-62
2021/11/08 04:32:17;;;;;;;2.60;1.92;;;24.10;43.00;;;;;;6142359;28;80679;-62
2021/11/08 04:35:28;;;;;;;2.10;1.90;;;24.10;43.00;;;;;;6144392;28;81560;-63
2021/11/08 04:38:45;;;;;;;3.30;1.85;;;24.10;43.10;;;;;;6144740;28;81006;-63
2021/11/08 04:42:01;;;;;;;2.75;1.98;;;24.10;43.20;;;;;;6153437;28;84759;-63
2021/11/08 04:58:51;;;;;;;2.40;1.80;;;24.10;43.20;;;;;;6139297;28;87423;-65
2021/11/08 05:21:29;;;;;;;432.05;141.88;;;24.30;43.60;;;;;;6147729;28;86107;-64
2021/11/08 05:24:37;;;;;;;414.60;135.73;;;24.30;43.70;;;;;;6142742;28;85881;-64
2021/11/08 05:28:05;;;;;;;;;;;;;;;;;;;;;
2021/11/08 05:30:53;;;;;;;337.83;114.95;;;24.30;43.60;;;;;;6138638;28;85634;-63
2021/11/08 05:33:54;;;;;;;317.92;104.57;;;24.30;43.60;;;;;;6133161;28;85788;-64
2021/11/08 05:36:55;;;;;;;296.65;96.10;;;24.30;43.50;;;;;;6142567;28;85638;-64
2021/11/08 05:40:00;;;;;;;277.52;92.28;;;24.30;43.70;;;;;;6150626;28;84096;-64
2021/11/08 05:43:02;;;;;;;272.70;91.65;;;24.20;44.00;;;;;;6146199;28;84122;-64
2021/11/08 05:46:03;;;;;;;271.20;93.00;;;24.20;43.90;;;;;;6144987;28;83286;-66
2021/11/08 05:49:04;;;;;;;274.80;86.18;;;24.20;44.60;;;;;;6148765;28;83809;-64
2021/11/08 05:52:04;;;;;;;253.80;90.40;;;24.20;44.80;;;;;;6141012;28;83115;-65
2021/11/08 05:55:05;;;;;;;239.60;82.88;;;24.10;45.70;;;;;;6148060;28;85231;-65
2021/11/08 06:51:05;;;;;;;25.17;9.65;;;23.80;52.50;;;;;;6156603;28;80555;-64
2021/11/08 06:54:06;;;;;;;23.70;10.05;;;23.90;52.70;;;;;;6155691;28;88395;-64
2021/11/08 06:57:17;;;;;;;17.60;8.43;;;24.00;51.70;;;;;;6141881;28;83111;-64
2021/11/08 07:00:17;;;;;;;13.27;7.00;;;23.90;50.50;;;;;;6146607;28;83363;-65
2021/11/08 07:03:18;;;;;;;14.32;6.72;;;24.00;50.30;;;;;;6152821;28;83482;-65
2021/11/08 07:06:18;;;;;;;12.38;5.57;;;23.90;49.90;;;;;;6155331;28;80513;-65
2021/11/08 07:09:19;;;;;;;13.20;5.15;;;23.90;50.60;;;;;;6152062;28;80619;-62
2021/11/08 07:12:19;;;;;;;8.75;4.13;;;24.00;50.90;;;;;;6151551;28;81440;-62
2021/11/08 07:15:20;;;;;;;10.68;4.68;;;24.00;51.00;;;;;;6150934;28;80666;-62
2021/11/08 07:18:20;;;;;;;7.13;3.80;;;24.00;50.80;;;;;;6151241;28;82062;-67
2021/11/08 07:21:21;;;;;;;8.23;3.78;;;24.00;50.10;;;;;;6142916;28;81147;-62
2021/11/08 07:24:21;;;;;;;6.90;3.38;;;24.00;48.00;;;;;;6144031;28;80912;-64
2021/11/08 07:27:22;;;;;;;6.82;3.80;;;24.00;46.70;;;;;;6144818;28;81227;-61
2021/11/08 07:30:23;;;;;;;7.13;3.50;;;24.00;45.90;;;;;;6141230;28;81435;-62
2021/11/08 07:33:24;;;;;;;8.77;4.05;;;24.00;45.50;;;;;;6145243;28;81238;-64
2021/11/08 07:36:25;;;;;;;12.30;5.05;;;24.00;45.10;;;;;;6146380;28;80431;-64
2021/11/08 07:39:25;;;;;;;13.60;4.65;;;24.00;44.60;;;;;;6146917;28;80445;-65
2021/11/08 07:42:26;;;;;;;10.05;4.18;;;24.00;44.40;;;;;;6147282;28;80372;-64
2021/11/08 07:45:27;;;;;;;11.95;5.40;;;24.00;44.20;;;;;;6140401;28;83620;-64
2021/11/08 07:48:27;;;;;;;8.27;4.22;;;24.00;43.90;;;;;;6154659;28;80250;-74
2021/11/08 07:51:28;;;;;;;10.32;4.60;;;24.00;43.50;;;;;;6147966;28;80994;-66
2021/11/08 07:54:31;;;;;;;10.07;4.15;;;24.00;43.10;;;;;;6148120;28;80430;-67
2021/11/08 07:57:31;;;;;;;7.30;3.92;;;24.00;43.10;;;;;;6143282;28;82529;-62
2021/11/08 08:00:32;;;;;;;6.75;3.85;;;24.10;43.00;;;;;;6147945;28;80627;-63
2021/11/08 08:03:32;;;;;;;8.40;3.75;;;24.10;43.40;;;;;;6143085;28;81149;-63
2021/11/08 08:06:33;;;;;;;7.65;3.40;;;24.10;42.70;;;;;;6150248;28;81743;-63
2021/11/08 08:09:33;;;;;;;11.38;3.38;;;24.10;42.70;;;;;;6149580;28;81138;-68
2021/11/08 08:12:34;;;;;;;8.73;3.47;;;24.10;43.00;;;;;;6152101;28;80580;-63
2021/11/08 08:15:34;;;;;;;10.15;3.10;;;24.10;42.80;;;;;;6150300;28;81465;-63
2021/11/08 08:18:36;;;;;;;10.00;3.67;;;24.10;43.70;;;;;;6142592;28;80452;-64
2021/11/08 08:21:36;;;;;;;7.65;3.55;;;24.00;42.70;;;;;;6150128;28;81077;-65
2021/11/08 08:24:37;;;;;;;4.80;3.30;;;24.10;42.40;;;;;;6154385;28;80674;-64
2021/11/08 08:27:37;;;;;;;7.88;2.78;;;24.00;42.50;;;;;;6141649;28;81527;-66
2021/11/08 08:30:38;;;;;;;5.65;3.13;;;24.00;42.60;;;;;;6146677;28;81457;-64
2021/11/08 08:33:38;;;;;;;10.13;3.15;;;24.00;42.50;;;;;;6143612;28;80947;-64
2021/11/08 08:36:39;;;;;;;5.47;3.22;;;23.90;43.10;;;;;;6146954;28;80929;-74
2021/11/08 08:39:39;;;;;;;7.03;3.10;;;23.90;42.70;;;;;;6152155;28;81050;-72
2021/11/08 08:42:40;;;;;;;9.35;3.28;;;23.90;42.20;;;;;;6149752;28;81013;-65
2021/11/08 08:45:41;;;;;;;7.53;3.13;;;23.90;41.90;;;;;;6146561;28;80259;-64
2021/11/08 08:48:41;;;;;;;8.00;3.67;;;23.90;42.50;;;;;;6137301;28;82322;-64
2021/11/08 08:51:42;;;;;;;11.98;3.80;;;23.90;42.80;;;;;;6152651;28;80953;-68
2021/11/08 08:54:42;;;;;;;5.72;3.08;;;23.80;42.80;;;;;;6147851;28;80595;-67
2021/11/08 08:57:43;;;;;;;8.02;3.20;;;23.80;42.50;;;;;;6145461;28;82766;-67
2021/11/08 09:00:44;;;;;;;6.13;3.13;;;23.80;42.30;;;;;;6145450;28;81311;-65
2021/11/08 09:03:45;;;;;;;5.65;2.70;;;23.80;42.30;;;;;;6146035;28;80971;-68
2021/11/08 09:06:45;;;;;;;7.93;3.45;;;23.80;41.90;;;;;;6148741;28;80754;-64
2021/11/08 09:09:45;;;;;;;5.13;2.72;;;23.80;41.70;;;;;;6147861;28;80215;-65
2021/11/08 09:12:47;;;;;;;6.03;2.88;;;23.80;42.00;;;;;;6145243;28;81244;-65
2021/11/08 09:15:48;;;;;;;8.65;3.53;;;23.80;42.00;;;;;;6143809;28;80056;-65
2021/11/08 09:18:48;;;;;;;6.57;3.25;;;23.80;41.60;;;;;;6145774;28;80470;-65
2021/11/08 09:21:49;;;;;;;7.05;3.17;;;23.80;41.40;;;;;;6144898;28;80857;-65
2021/11/08 09:24:49;;;;;;;6.95;4.00;;;23.80;41.20;;;;;;6149868;28;81796;-64
2021/11/08 09:27:50;;;;;;;5.28;3.03;;;23.80;41.40;;;;;;6149264;28;81993;-64
2021/11/08 09:30:51;;;;;;;6.05;2.63;;;23.80;41.50;;;;;;6146909;28;80704;-64
2021/11/08 09:33:53;;;;;;;9.52;2.80;;;23.80;41.40;;;;;;6146483;28;80520;-65
2021/11/08 09:36:57;;;;;;;7.38;3.17;;;23.80;41.40;;;;;;6148045;28;80487;-67
2021/11/08 09:39:58;;;;;;;5.75;3.20;;;23.70;40.90;;;;;;6151398;28;80359;-67
2021/11/08 09:42:58;;;;;;;4.97;2.80;;;23.80;41.60;;;;;;6150032;28;81841;-64
2021/11/08 09:45:59;;;;;;;6.28;2.75;;;23.70;41.10;;;;;;6146020;28;80317;-65
2021/11/08 09:48:59;;;;;;;6.43;3.13;;;23.70;40.80;;;;;;6153160;28;81408;-67
2021/11/08 09:52:00;;;;;;;4.70;2.78;;;23.60;41.70;;;;;;6143662;28;81839;-64
2021/11/08 09:55:00;;;;;;;8.77;3.92;;;23.50;41.40;;;;;;6150097;28;81178;-65
2021/11/08 09:58:01;;;;;;;21.52;6.63;;;23.60;42.10;;;;;;6148966;28;86660;-65
2021/11/08 10:01:01;;;;;;;21.85;6.97;;;23.60;42.40;;;;;;6147625;28;80698;-66
2021/11/08 10:04:02;;;;;;;20.85;7.10;;;23.60;43.10;;;;;;6154425;28;81850;-67
2021/11/08 10:07:03;;;;;;;20.15;6.53;;;23.60;43.60;;;;;;6147790;28;81786;-63
2021/11/08 10:10:03;;;;;;;13.63;5.65;;;23.60;43.50;;;;;;6149917;28;80250;-62
2021/11/08 10:13:04;;;;;;;19.08;5.57;;;23.50;43.10;;;;;;6147927;28;81521;-63
2021/11/08 10:16:04;;;;;;;10.98;4.57;;;23.50;43.10;;;;;;6146778;28;80755;-62
2021/11/08 10:19:05;;;;;;;10.32;3.72;;;23.50;42.70;;;;;;6150800;28;82039;-62
2021/11/08 10:22:06;;;;;;;12.48;4.22;;;23.50;43.00;;;;;;6138043;28;81350;-62
2021/11/08 10:25:06;;;;;;;8.93;3.92;;;23.40;42.30;;;;;;6146076;28;81901;-63
2021/11/08 10:28:07;;;;;;;6.60;3.20;;;23.50;41.90;;;;;;6152615;28;81077;-61
2021/11/08 10:31:09;;;;;;;6.00;2.60;;;23.50;41.60;;;;;;6150631;28;80652;-63
2021/11/08 10:34:09;;;;;;;6.30;2.90;;;23.60;41.30;;;;;;6146736;28;82568;-65
2021/11/08 10:37:10;;;;;;;5.65;2.70;;;23.60;40.70;;;;;;6155768;28;80895;-63
2021/11/08 10:40:10;;;;;;;5.45;2.22;;;23.60;40.50;;;;;;6150268;28;81430;-62
2021/11/08 10:43:11;;;;;;;6.78;2.67;;;23.70;40.30;;;;;;6150254;28;84918;-62
2021/11/08 10:46:12;;;;;;;4.28;2.13;;;23.70;39.80;;;;;;6153190;28;81703;-62
2021/11/08 10:49:12;;;;;;;3.30;2.10;;;23.70;40.20;;;;;;6151484;28;81393;-62
2021/11/08 10:52:14;;;;;;;4.93;1.80;;;23.70;39.80;;;;;;6155360;28;80851;-63
2021/11/08 10:55:15;;;;;;;6.63;2.03;;;23.60;40.20;;;;;;6149606;28;81250;-61
2021/11/08 10:58:16;;;;;;;8.00;1.88;;;23.60;40.50;;;;;;6149177;28;81665;-61
2021/11/08 11:01:17;;;;;;;4.18;2.00;;;23.60;40.70;;;;;;6155452;28;81252;-61
2021/11/08 11:04:18;;;;;;;5.50;1.92;;;23.60;40.30;;;;;;6159820;28;81381;-61
2021/11/08 11:07:19;;;;;;;3.67;2.05;;;23.60;40.30;;;;;;6146278;28;80988;-61
2021/11/08 11:10:19;;;;;;;3.65;1.90;;;23.60;40.40;;;;;;6144248;28;82038;-61
2021/11/08 11:13:20;;;;;;;4.13;1.77;;;23.60;40.60;;;;;;6148123;28;80810;-61
2021/11/08 11:16:20;;;;;;;4.00;1.73;;;23.60;40.90;;;;;;6152497;28;80711;-61
2021/11/08 11:19:21;;;;;;;8.10;2.65;;;23.60;40.70;;;;;;6156007;28;86936;-61
2021/11/08 11:22:22;;;;;;;4.63;1.90;;;23.50;40.40;;;;;;6145764;28;80634;-62
2021/11/08 11:25:22;;;;;;;4.75;1.73;;;23.50;40.30;;;;;;6150558;28;80742;-61
2021/11/08 11:28:23;;;;;;;4.50;1.92;;;23.50;40.50;;;;;;6145518;28;81380;-61
2021/11/08 11:31:24;;;;;;;4.63;2.08;;;23.50;40.60;;;;;;6156150;28;80251;-62
2021/11/08 11:34:24;;;;;;;3.33;1.73;;;23.50;40.40;;;;;;6155277;28;80466;-61
2021/11/08 11:37:25;;;;;;;4.40;1.73;;;23.50;40.70;;;;;;6155419;28;81123;-62
2021/11/08 11:40:25;;;;;;;1.63;1.27;;;23.60;41.50;;;;;;6146374;28;80961;-63
2021/11/08 11:43:26;;;;;;;2.53;1.70;;;23.60;42.70;;;;;;6151253;28;80376;-62
2021/11/08 11:46:26;;;;;;;5.03;1.90;;;23.60;43.00;;;;;;6148960;28;81120;-62
2021/11/08 11:49:27;;;;;;;3.40;2.05;;;23.60;43.10;;;;;;6147847;28;80454;-62
2021/11/08 11:52:27;;;;;;;4.03;2.40;;;23.70;43.30;;;;;;6148847;28;81272;-62
2021/11/08 11:55:28;;;;;;;5.15;2.20;;;23.70;43.50;;;;;;6151653;28;80216;-62
2021/11/08 11:58:29;;;;;;;2.88;1.77;;;23.70;43.60;;;;;;6147299;28;80629;-62
2021/11/08 12:01:30;;;;;;;4.90;1.77;;;23.80;43.60;;;;;;6150071;28;80597;-62
2021/11/08 12:04:30;;;;;;;2.60;1.50;;;23.70;44.20;;;;;;6156432;28;81162;-62
2021/11/08 12:07:32;;;;;;;3.95;1.95;;;23.80;44.50;;;;;;6149421;28;86040;-62
2021/11/08 12:10:32;;;;;;;3.80;1.90;;;23.80;44.60;;;;;;6141267;28;80624;-62
2021/11/08 12:13:34;;;;;;;3.83;1.50;;;23.90;44.40;;;;;;6147041;28;80881;-62
2021/11/08 12:16:34;;;;;;;2.70;1.60;;;23.90;44.40;;;;;;6141084;28;81432;-62
2021/11/08 12:19:36;;;;;;;4.32;1.85;;;23.90;44.60;;;;;;6145048;28;80617;-61
2021/11/08 12:22:36;;;;;;;6.18;1.65;;;23.90;44.80;;;;;;6151912;28;80850;-62
2021/11/08 12:25:37;;;;;;;2.35;1.40;;;23.90;44.80;;;;;;6153409;28;80663;-62
2021/11/08 12:28:37;;;;;;;2.67;2.08;;;24.00;45.10;;;;;;6143925;28;81532;-63
2021/11/08 12:31:38;;;;;;;2.40;1.27;;;24.10;45.30;;;;;;6141554;28;80506;-61
2021/11/08 12:34:39;;;;;;;4.85;1.75;;;24.20;45.10;;;;;;6141265;28;80776;-62
2021/11/08 12:37:39;;;;;;;1.92;1.30;;;24.20;44.70;;;;;;6146785;28;81270;-65
2021/11/08 12:40:41;;;;;;;4.40;1.95;;;24.10;45.20;;;;;;6149851;28;80555;-65
2021/11/08 12:43:41;;;;;;;2.08;1.33;;;24.10;45.10;;;;;;6151212;28;81537;-66
2021/11/08 12:46:42;;;;;;;3.15;1.70;;;24.10;45.40;;;;;;6145744;28;80462;-66
2021/11/08 12:49:42;;;;;;;3.00;1.85;;;24.10;45.70;;;;;;6151957;28;82796;-64
2021/11/08 12:52:44;;;;;;;3.60;1.60;;;24.10;45.70;;;;;;6149438;28;80200;-64
2021/11/08 12:55:45;;;;;;;1.67;1.40;;;24.10;45.60;;;;;;6150623;28;80367;-63
2021/11/08 12:58:50;;;;;;;1.48;1.23;;;24.10;45.60;;;;;;6108257;28;1200387;-63
2021/11/08 13:01:50;;;;;;;3.27;1.57;;;24.10;45.60;;;;;;6146432;28;80794;-65
2021/11/08 13:04:51;;;;;;;2.60;1.55;;;24.10;45.60;;;;;;6148705;28;80280;-64
2021/11/08 13:07:53;;;;;;;1.20;1.10;;;24.10;45.60;;;;;;6153855;28;80918;-64
2021/11/08 13:10:54;;;;;;;3.15;1.77;;;24.10;45.30;;;;;;6148147;28;80165;-64
2021/11/08 13:13:54;;;;;;;2.40;1.33;;;24.10;45.40;;;;;;6149358;28;80961;-65
2021/11/08 13:16:55;;;;;;;3.97;1.50;;;24.10;45.70;;;;;;6153924;28;80806;-64
2021/11/08 13:19:55;;;;;;;3.28;1.63;;;24.10;45.60;;;;;;6152368;28;80858;-64
2021/11/08 13:22:57;;;;;;;3.47;2.05;;;24.10;45.70;;;;;;6147136;28;81875;-64
2021/11/08 13:25:57;;;;;;;3.00;1.42;;;24.10;45.80;;;;;;6151008;28;80380;-64
2021/11/08 13:28:59;;;;;;;2.47;1.70;;;24.10;46.10;;;;;;6150617;28;81873;-64
2021/11/08 13:32:00;;;;;;;2.42;1.52;;;24.20;45.80;;;;;;6147789;28;80617;-64
2021/11/08 13:35:00;;;;;;;2.08;1.50;;;24.10;45.90;;;;;;6153015;28;81778;-64
2021/11/08 13:38:01;;;;;;;2.38;1.55;;;24.10;45.90;;;;;;6150442;28;80471;-65
2021/11/08 13:41:01;;;;;;;2.05;1.45;;;24.20;46.00;;;;;;6150886;28;80801;-64
2021/11/08 13:44:02;;;;;;;3.15;1.50;;;24.20;46.00;;;;;;6149451;28;80737;-65
2021/11/08 13:47:03;;;;;;;1.95;1.60;;;24.20;46.30;;;;;;6152824;28;81446;-65
2021/11/08 13:50:03;;;;;;;1.80;1.20;;;24.10;46.50;;;;;;6153088;28;81364;-68
2021/11/08 13:53:04;;;;;;;2.92;1.75;;;24.10;46.50;;;;;;6149888;28;80350;-70
2021/11/08 13:56:04;;;;;;;3.10;1.67;;;24.10;47.30;;;;;;6151072;28;80741;-66
2021/11/08 13:59:05;;;;;;;3.45;1.73;;;24.10;46.60;;;;;;6147058;28;80579;-65
2021/11/08 14:02:06;;;;;;;1.40;1.30;;;24.10;46.80;;;;;;6153328;28;80330;-64
2021/11/08 14:05:06;;;;;;;2.20;1.42;;;24.00;47.40;;;;;;6155127;28;81023;-65
2021/11/08 14:08:07;;;;;;;2.67;1.42;;;24.00;47.40;;;;;;6160382;28;80853;-66
2021/11/08 14:11:07;;;;;;;2.53;1.40;;;24.00;47.10;;;;;;6151265;28;80630;-65
2021/11/08 14:14:08;;;;;;;3.03;1.63;;;24.00;47.50;;;;;;6155894;28;80324;-65
2021/11/08 14:17:08;;;;;;;2.95;1.58;;;24.00;47.50;;;;;;6152806;28;80841;-64
2021/11/08 14:20:09;;;;;;;2.58;1.52;;;24.00;47.40;;;;;;6150313;28;82777;-65
2021/11/08 14:23:09;;;;;;;15.40;5.57;;;24.00;47.50;;;;;;6151073;28;80771;-65
2021/11/08 14:26:10;;;;;;;343.23;98.45;;;24.00;48.20;;;;;;6153528;28;80704;-65
2021/11/08 14:29:10;;;;;;;581.90;195.88;;;24.00;48.40;;;;;;6153428;28;83477;-65
2021/11/08 14:32:12;;;;;;;678.17;255.07;;;24.00;49.20;;;;;;6146964;28;86255;-65
2021/11/08 14:35:18;;;;;;;552.25;188.65;;;23.90;49.60;;;;;;6149477;28;86026;-65
2021/11/08 14:38:19;;;;;;;455.05;146.82;;;23.90;49.40;;;;;;6145923;28;86755;-67
2021/11/08 14:41:20;;;;;;;456.20;149.88;;;23.90;49.90;;;;;;6152805;28;87070;-67
2021/11/08 14:44:20;;;;;;;584.20;223.70;;;23.90;49.70;;;;;;6148588;28;85999;-66
2021/11/08 14:47:21;;;;;;;495.88;175.70;;;23.90;50.40;;;;;;6143961;28;85504;-65
2021/11/08 14:50:26;;;;;;;449.33;150.20;;;23.80;50.90;;;;;;6151019;28;85864;-66
2021/11/08 14:53:29;;;;;;;;;;;23.90;51.10;;;;;;6139745;28;86948;-66
2021/11/08 14:56:31;;;;;;;313.92;108.53;;;23.90;51.00;;;;;;6155343;28;85640;-66
2021/11/08 14:59:32;;;;;;;278.15;94.38;;;23.90;50.90;;;;;;6140279;28;85721;-67
2021/11/08 15:02:32;;;;;;;254.65;85.30;;;23.90;50.80;;;;;;6148156;28;86316;-65
2021/11/08 15:05:33;;;;;;;210.48;73.68;;;23.90;50.70;;;;;;6142359;28;83288;-66
2021/11/08 15:08:34;;;;;;;195.25;67.82;;;23.90;51.10;;;;;;6146849;28;83327;-67
2021/11/08 15:11:36;;;;;;;189.77;64.53;;;23.90;50.60;;;;;;6142830;28;85327;-66
2021/11/08 15:14:37;;;;;;;155.10;56.53;;;23.90;50.60;;;;;;6149978;28;84417;-66
2021/11/08 15:17:37;;;;;;;156.43;52.15;;;23.90;50.80;;;;;;6145466;28;84306;-65
2021/11/08 15:20:38;;;;;;;137.02;46.30;;;23.80;50.80;;;;;;6150580;28;83511;-67
2021/11/08 15:23:40;;;;;;;125.55;41.88;;;23.80;50.70;;;;;;6143222;28;83407;-66
2021/11/08 15:26:41;;;;;;;108.47;38.92;;;23.80;51.50;;;;;;6144551;28;84248;-63
2021/11/08 15:29:41;;;;;;;100.72;35.63;;;23.80;51.60;;;;;;6149586;28;83875;-63
2021/11/08 15:32:42;;;;;;;111.60;38.83;;;23.90;51.20;;;;;;6148820;28;83469;-65
2021/11/08 15:35:42;;;;;;;92.75;32.50;;;23.90;51.30;;;;;;6140321;28;82986;-66
2021/11/08 15:38:43;;;;;;;75.45;28.77;;;23.90;51.80;;;;;;6144227;28;83529;-66
2021/11/08 15:41:43;;;;;;;66.22;24.58;;;23.90;52.30;;;;;;6151530;28;83798;-73
2021/11/08 15:44:44;;;;;;;62.13;24.02;;;23.90;52.70;;;;;;6152125;28;83744;-72
2021/11/08 15:47:45;;;;;;;67.95;22.48;;;23.90;52.70;;;;;;6146556;28;83319;-71
2021/11/08 15:50:45;;;;;;;50.55;21.65;;;23.90;52.90;;;;;;6149467;28;83368;-70
2021/11/08 15:53:46;;;;;;;60.10;24.83;;;23.90;52.90;;;;;;6147475;28;83131;-72
2021/11/08 15:56:46;;;;;;;55.10;22.23;;;24.00;52.80;;;;;;6144374;28;85150;-70
2021/11/08 15:59:47;;;;;;;62.95;24.92;;;23.90;52.60;;;;;;6145910;28;83485;-69
2021/11/08 16:02:47;;;;;;;65.65;26.63;;;23.90;52.50;;;;;;6141752;28;83143;-74
2021/11/08 16:05:48;;;;;;;59.05;25.02;;;24.00;52.30;;;;;;6155324;28;82958;-71
2021/11/08 16:08:48;;;;;;;55.20;26.20;;;23.90;51.80;;;;;;6151798;28;83082;-67
2021/11/08 16:11:49;;;;;;;62.55;28.90;;;23.90;52.50;;;;;;6150052;28;83405;-68
2021/11/08 16:14:49;;;;;;;53.00;25.42;;;23.90;51.90;;;;;;6146282;28;83515;-68
2021/11/08 16:17:51;;;;;;;57.22;25.17;;;23.90;52.50;;;;;;6145867;28;83092;-64
2021/11/08 16:20:51;;;;;;;57.40;25.90;;;23.90;52.30;;;;;;6141565;28;84702;-66
2021/11/08 16:23:53;;;;;;;51.55;23.02;;;23.90;52.10;;;;;;6149183;28;83047;-72
2021/11/08 16:26:54;;;;;;;49.78;22.02;;;23.90;52.50;;;;;;6142225;28;83415;-66
2021/11/08 16:29:55;;;;;;;42.75;18.98;;;24.00;52.60;;;;;;6145174;28;83460;-67
2021/11/08 16:32:56;;;;;;;40.83;18.60;;;23.90;52.00;;;;;;6144760;28;84491;-65
2021/11/08 16:35:56;;;;;;;44.80;17.10;;;23.90;52.30;;;;;;6138805;28;83408;-66
2021/11/08 16:38:57;;;;;;;36.70;14.13;;;24.00;52.30;;;;;;6147279;28;84154;-65
2021/11/08 16:42:00;;;;;;;42.08;14.15;;;24.00;52.30;;;;;;6141581;28;82845;-67
2021/11/08 16:45:00;;;;;;;34.72;13.50;;;24.00;52.40;;;;;;6142029;28;83164;-69
2021/11/08 16:48:01;;;;;;;28.00;12.15;;;24.00;53.00;;;;;;6145489;28;83183;-67
2021/11/08 16:51:02;;;;;;;28.70;11.50;;;24.00;53.00;;;;;;6144772;28;83219;-68
2021/11/08 16:54:02;;;;;;;26.58;11.13;;;24.00;53.60;;;;;;6145440;28;84151;-67
2021/11/08 16:57:04;;;;;;;22.55;9.13;;;24.00;53.60;;;;;;6137366;28;84660;-69
2021/11/08 17:00:05;;;;;;;23.50;9.60;;;24.00;53.70;;;;;;6150135;28;83054;-69
2021/11/08 17:03:05;;;;;;;26.67;9.25;;;24.00;53.40;;;;;;6139828;28;81722;-68
2021/11/08 17:06:10;;;;;;;16.23;8.75;;;24.00;53.70;;;;;;6150307;28;80492;-69